createdAt,value
2023-02-19T00:00:43.478Z,5.10
2023-02-19T00:03:35.753Z,4.20
2023-02-19T00:06:10.044Z,3.80
2023-02-19T00:08:41.927Z,3.40
2023-02-19T00:11:16.544Z,3.30
2023-02-19T00:13:49.981Z,3.60
2023-02-19T00:16:23.878Z,3.90
2023-02-19T00:18:58.634Z,3.00
2023-02-19T00:21:30.550Z,1.90
2023-02-19T00:24:06.194Z,3.40
2023-02-19T00:26:39.740Z,2.40
2023-02-19T00:29:15.158Z,2.70
2023-02-19T00:31:47.639Z,1.60
2023-02-19T00:34:19.783Z,2.30
2023-02-19T00:36:51.632Z,1.30
2023-02-19T00:39:23.732Z,1.70
2023-02-19T00:41:55.593Z,1.00
2023-02-19T00:44:27.576Z,1.80
2023-02-19T00:46:59.630Z,1.80
2023-02-19T00:49:31.784Z,2.00
2023-02-19T00:52:03.658Z,2.50
2023-02-19T00:54:36.032Z,2.10
2023-02-19T00:57:08.379Z,2.40
2023-02-19T00:59:40.546Z,2.30
2023-02-19T01:02:12.558Z,1.50
2023-02-19T01:04:45.284Z,2.80
2023-02-19T01:07:17.570Z,3.40
2023-02-19T01:09:49.831Z,1.40
2023-02-19T01:12:21.804Z,2.10
2023-02-19T01:14:56.243Z,2.50
2023-02-19T01:17:28.217Z,2.20
2023-02-19T01:20:00.300Z,1.60
2023-02-19T01:22:32.186Z,2.50
2023-02-19T01:25:05.052Z,1.20
2023-02-19T01:27:36.897Z,1.60
2023-02-19T01:30:10.816Z,1.40
2023-02-19T01:32:42.672Z,3.00
2023-02-19T01:35:14.471Z,1.90
2023-02-19T01:37:46.278Z,1.90
2023-02-19T01:40:18.352Z,2.50
2023-02-19T01:42:52.827Z,2.00
2023-02-19T01:45:28.118Z,1.80
2023-02-19T01:48:06.046Z,1.60
2023-02-19T01:50:42.062Z,2.60
2023-02-19T01:53:16.044Z,2.30
2023-02-19T01:55:50.177Z,2.40
2023-02-19T02:00:52.968Z,2.00
2023-02-19T02:03:25.125Z,2.50
2023-02-19T02:06:01.901Z,1.80
2023-02-19T02:08:51.716Z,1.30
2023-02-19T02:11:23.859Z,1.90
2023-02-19T02:13:56.408Z,2.10
2023-02-19T02:16:34.942Z,2.30
2023-02-19T02:19:12.968Z,1.40
2023-02-19T02:22:03.560Z,2.80
2023-02-19T02:25:16.517Z,2.90
2023-02-19T02:27:57.712Z,1.30
2023-02-19T02:30:44.293Z,2.50
2023-02-19T02:33:22.837Z,4.00
2023-02-19T02:35:58.005Z,2.30
2023-02-19T02:38:32.364Z,4.20
2023-02-19T02:41:05.020Z,1.80
2023-02-19T02:43:37.256Z,3.50
2023-02-19T02:46:10.908Z,3.90
2023-02-19T02:48:44.985Z,2.90
2023-02-19T02:51:20.827Z,3.50
2023-02-19T02:54:15.102Z,3.20
2023-02-19T02:56:48.330Z,2.20
2023-02-19T02:59:23.227Z,2.00
2023-02-19T03:02:12.996Z,2.80
2023-02-19T03:05:08.239Z,3.20
2023-02-19T03:07:42.895Z,1.40
2023-02-19T03:10:18.954Z,2.20
2023-02-19T03:13:09.790Z,1.90
2023-02-19T03:16:07.087Z,2.60
2023-02-19T03:18:57.453Z,1.20
2023-02-19T03:21:31.485Z,2.30
2023-02-19T03:24:21.104Z,1.90
2023-02-19T03:26:55.039Z,3.00
2023-02-19T03:29:29.369Z,1.60
2023-02-19T03:32:03.528Z,1.30
2023-02-19T03:34:37.915Z,1.60
2023-02-19T03:37:13.777Z,1.10
2023-02-19T03:39:46.128Z,1.90
2023-02-19T03:42:26.506Z,2.50
2023-02-19T03:45:11.105Z,2.30
2023-02-19T03:47:49.190Z,2.20
2023-02-19T03:50:22.983Z,2.90
2023-02-19T03:53:03.428Z,1.20
2023-02-19T03:55:41.119Z,2.00
2023-02-19T03:58:18.053Z,3.10
2023-02-19T04:00:54.295Z,1.20
2023-02-19T04:03:30.583Z,2.10
2023-02-19T04:06:05.760Z,2.00
2023-02-19T04:08:38.928Z,1.10
2023-02-19T04:11:11.719Z,2.10
2023-02-19T04:13:46.866Z,1.70
2023-02-19T04:16:21.735Z,1.80
2023-02-19T04:18:58.853Z,1.20
2023-02-19T04:21:32.028Z,1.80
2023-02-19T04:24:08.263Z,0.80
2023-02-19T04:26:40.504Z,1.70
2023-02-19T04:29:12.494Z,1.80
2023-02-19T04:31:44.407Z,1.20
2023-02-19T04:34:16.337Z,0.80
2023-02-19T04:36:48.156Z,1.30
2023-02-19T04:39:20.076Z,1.50
2023-02-19T04:41:52.104Z,1.30
2023-02-19T04:44:24.106Z,2.70
2023-02-19T04:46:56.158Z,1.00
2023-02-19T04:49:27.987Z,1.40
2023-02-19T04:52:02.103Z,2.20
2023-02-19T04:54:34.052Z,2.20
2023-02-19T04:57:06.110Z,1.50
2023-02-19T04:59:38.308Z,1.20
2023-02-19T05:02:10.369Z,1.70
2023-02-19T05:04:42.259Z,1.50
2023-02-19T05:07:14.319Z,1.80
2023-02-19T05:09:46.824Z,1.80
2023-02-19T05:12:18.840Z,1.60
2023-02-19T05:14:50.978Z,2.40
2023-02-19T05:17:22.765Z,1.90
2023-02-19T05:19:54.544Z,2.50
2023-02-19T05:22:26.483Z,1.40
2023-02-19T05:24:58.596Z,1.40
2023-02-19T05:27:33.877Z,1.60
2023-02-19T05:30:07.201Z,1.90
2023-02-19T05:32:39.515Z,2.80
2023-02-19T05:35:11.417Z,1.70
2023-02-19T05:37:43.485Z,2.80
2023-02-19T05:40:15.730Z,2.50
2023-02-19T05:42:47.822Z,3.00
2023-02-19T05:45:20.124Z,2.90
2023-02-19T05:47:52.928Z,1.00
2023-02-19T05:50:24.918Z,4.10
2023-02-19T05:52:56.926Z,2.90
2023-02-19T05:55:29.017Z,2.90
2023-02-19T05:58:01.150Z,3.60
2023-02-19T06:00:34.347Z,1.60
2023-02-19T06:03:06.231Z,2.00
2023-02-19T06:05:38.379Z,2.50
2023-02-19T06:08:10.837Z,2.50
2023-02-19T06:10:43.182Z,2.70
2023-02-19T06:13:17.526Z,1.80
2023-02-19T06:15:49.745Z,3.00
2023-02-19T06:18:21.527Z,3.20
2023-02-19T06:20:53.655Z,2.90
2023-02-19T06:23:25.627Z,3.90
2023-02-19T06:26:03.759Z,3.60
2023-02-19T06:28:35.655Z,2.40
2023-02-19T06:31:08.554Z,4.50
2023-02-19T06:33:41.535Z,3.60
2023-02-19T06:36:17.287Z,3.20
2023-02-19T06:38:49.189Z,3.70
2023-02-19T06:41:21.308Z,3.70
2023-02-19T06:43:53.116Z,2.50
2023-02-19T06:46:25.487Z,4.50
2023-02-19T06:48:57.292Z,4.70
2023-02-19T06:51:30.015Z,3.80
2023-02-19T06:54:03.384Z,1.70
2023-02-19T06:56:37.783Z,2.20
2023-02-19T06:59:11.541Z,2.80
2023-02-19T07:01:43.522Z,3.50
2023-02-19T07:04:15.931Z,4.20
2023-02-19T07:06:48.179Z,3.80
2023-02-19T07:09:21.221Z,3.00
2023-02-19T07:11:54.717Z,2.60
2023-02-19T07:14:26.592Z,3.40
2023-02-19T07:16:58.602Z,3.30
2023-02-19T07:19:30.531Z,4.20
2023-02-19T07:22:02.508Z,3.50
2023-02-19T07:24:34.549Z,2.30
2023-02-19T07:27:06.548Z,2.90
2023-02-19T07:29:38.436Z,3.90
2023-02-19T07:32:10.489Z,4.00
2023-02-19T07:34:42.537Z,5.70
2023-02-19T07:37:14.572Z,3.20
2023-02-19T07:39:46.666Z,2.00
2023-02-19T07:42:18.923Z,4.30
2023-02-19T07:44:50.961Z,5.70
2023-02-19T07:47:22.959Z,3.30
2023-02-19T07:49:54.848Z,5.10
2023-02-19T07:52:26.858Z,5.20
2023-02-19T07:54:58.957Z,4.20
2023-02-19T07:57:31.866Z,4.70
2023-02-19T08:00:04.114Z,3.80
2023-02-19T08:02:53.723Z,4.80
2023-02-19T08:05:25.672Z,4.40
2023-02-19T08:07:57.800Z,3.80
2023-02-19T08:10:48.924Z,4.00
2023-02-19T08:13:22.682Z,3.30
2023-02-19T08:15:59.636Z,3.20
2023-02-19T08:18:39.545Z,3.10
2023-02-19T08:21:11.654Z,4.60
2023-02-19T08:23:43.970Z,3.60
2023-02-19T08:26:16.154Z,2.90
2023-02-19T08:28:49.046Z,4.00
2023-02-19T08:31:21.133Z,2.80
2023-02-19T08:33:53.265Z,2.70
2023-02-19T08:36:26.230Z,3.00
2023-02-19T08:38:58.371Z,3.00
2023-02-19T08:41:30.463Z,2.80
2023-02-19T08:44:02.681Z,2.90
2023-02-19T08:46:34.956Z,2.90
2023-02-19T08:49:07.029Z,3.80
2023-02-19T08:51:39.061Z,3.00
2023-02-19T08:54:11.138Z,3.60
2023-02-19T08:56:43.326Z,2.00
2023-02-19T08:59:15.454Z,2.70
2023-02-19T09:01:47.392Z,4.00
2023-02-19T09:04:19.500Z,3.10
2023-02-19T09:06:51.728Z,3.40
2023-02-19T09:09:23.979Z,2.80
2023-02-19T09:11:55.917Z,3.10
2023-02-19T09:14:28.215Z,4.10
2023-02-19T09:17:00.229Z,3.00
2023-02-19T09:19:32.404Z,3.10
2023-02-19T09:22:04.532Z,2.80
2023-02-19T09:24:36.792Z,2.90
2023-02-19T09:27:08.658Z,3.50
2023-02-19T09:29:40.819Z,2.30
2023-02-19T09:32:12.740Z,3.40
2023-02-19T09:34:44.840Z,4.00
2023-02-19T09:37:16.675Z,5.50
2023-02-19T09:39:48.703Z,3.40
2023-02-19T09:42:21.931Z,2.40
2023-02-19T09:44:55.607Z,4.20
2023-02-19T09:47:29.073Z,3.30
2023-02-19T09:50:04.509Z,2.40
2023-02-19T09:52:40.255Z,4.20
2023-02-19T09:55:18.948Z,3.10
2023-02-19T09:57:51.682Z,2.90
2023-02-19T10:00:28.221Z,4.10
2023-02-19T10:03:05.635Z,2.20
2023-02-19T10:05:38.104Z,3.30
2023-02-19T10:08:14.459Z,1.90
2023-02-19T10:10:46.930Z,2.90
2023-02-19T10:13:22.915Z,2.50
2023-02-19T10:15:56.623Z,2.60
2023-02-19T10:18:30.945Z,3.10
2023-02-19T10:21:03.315Z,3.90
2023-02-19T10:23:35.468Z,4.30
2023-02-19T10:26:07.756Z,3.20
2023-02-19T10:28:41.016Z,2.30
2023-02-19T10:31:20.761Z,3.10
2023-02-19T10:33:54.540Z,2.00
2023-02-19T10:36:32.431Z,3.00
2023-02-19T10:39:07.488Z,2.50
2023-02-19T10:41:44.408Z,3.00
2023-02-19T10:44:20.157Z,2.50
2023-02-19T10:46:55.473Z,2.50
2023-02-19T10:49:30.397Z,3.10
2023-02-19T10:52:05.898Z,2.00
2023-02-19T10:54:37.799Z,3.50
2023-02-19T10:57:30.374Z,2.00
2023-02-19T11:00:04.328Z,3.10
2023-02-19T11:02:39.240Z,1.80
2023-02-19T11:05:23.327Z,3.10
2023-02-19T11:07:57.455Z,2.10
2023-02-19T11:13:05.165Z,1.30
2023-02-19T11:15:38.114Z,1.30
2023-02-19T11:18:25.188Z,2.60
2023-02-19T11:20:59.296Z,2.70
2023-02-19T11:26:04.976Z,1.30
2023-02-19T11:28:38.789Z,2.00
2023-02-19T11:31:23.046Z,2.10
2023-02-19T11:36:31.040Z,1.60
2023-02-19T11:39:13.225Z,2.00
2023-02-19T11:42:24.260Z,2.10
2023-02-19T11:45:06.654Z,1.90
2023-02-19T11:48:02.298Z,1.40
2023-02-19T11:50:47.140Z,2.60
2023-02-19T11:53:27.179Z,1.90
2023-02-19T11:56:13.594Z,2.20
2023-02-19T11:59:02.977Z,1.20
2023-02-19T12:02:00.756Z,2.10
2023-02-19T12:05:14.096Z,1.80
2023-02-19T12:08:08.232Z,2.00
2023-02-19T12:10:50.174Z,1.40
2023-02-19T12:13:28.349Z,1.60
2023-02-19T12:16:19.543Z,2.30
2023-02-19T12:19:21.209Z,2.30
2023-02-19T12:22:06.617Z,1.60
2023-02-19T12:24:59.057Z,1.20
2023-02-19T12:27:41.476Z,2.20
2023-02-19T12:30:29.768Z,1.90
2023-02-19T12:33:34.075Z,2.40
2023-02-19T12:36:13.058Z,1.40
2023-02-19T12:38:48.632Z,1.50
2023-02-19T12:41:50.266Z,1.90
2023-02-19T12:44:28.100Z,1.50
2023-02-19T12:47:04.131Z,1.60
2023-02-19T12:49:41.780Z,1.10
2023-02-19T12:52:17.155Z,2.30
2023-02-19T12:54:51.240Z,1.60
2023-02-19T12:57:25.652Z,1.70
2023-02-19T13:00:03.944Z,1.30
2023-02-19T13:02:39.998Z,2.10
2023-02-19T13:05:19.839Z,0.90
2023-02-19T13:08:00.438Z,1.50
2023-02-19T13:10:35.387Z,1.80
2023-02-19T13:13:11.596Z,1.90
2023-02-19T13:15:48.889Z,1.70
2023-02-19T13:18:24.130Z,2.20
2023-02-19T13:20:56.735Z,1.30
2023-02-19T13:23:48.488Z,1.40
2023-02-19T13:26:31.401Z,1.80
2023-02-19T13:29:21.859Z,1.40
2023-02-19T13:32:21.161Z,2.30
2023-02-19T13:35:02.447Z,1.80
2023-02-19T13:37:36.844Z,1.40
2023-02-19T13:40:21.583Z,2.00
2023-02-19T13:42:57.292Z,1.40
2023-02-19T13:45:35.326Z,1.20
2023-02-19T13:48:26.642Z,1.90
2023-02-19T13:51:34.248Z,1.40
2023-02-19T13:54:21.778Z,1.80
2023-02-19T13:57:28.583Z,1.40
2023-02-19T14:00:00.764Z,1.20
2023-02-19T14:02:35.309Z,1.90
2023-02-19T14:05:10.142Z,1.20
2023-02-19T14:07:52.690Z,1.80
2023-02-19T14:11:28.281Z,0.80
2023-02-19T14:14:10.019Z,1.40
2023-02-19T14:17:04.957Z,2.00
2023-02-19T14:20:10.068Z,1.50
2023-02-19T14:25:47.577Z,1.10
2023-02-19T14:28:27.258Z,1.00
2023-02-19T14:31:01.845Z,1.10
2023-02-19T14:33:36.021Z,1.20
2023-02-19T14:36:15.038Z,1.30
2023-02-19T14:38:49.654Z,1.30
2023-02-19T14:41:24.169Z,0.80
2023-02-19T14:43:58.359Z,1.00
2023-02-19T14:46:33.758Z,1.20
2023-02-19T14:49:08.788Z,1.00
2023-02-19T14:51:44.155Z,1.00
2023-02-19T14:54:19.008Z,1.10
2023-02-19T14:56:53.384Z,0.80
2023-02-19T14:59:28.288Z,1.10
2023-02-19T15:02:02.364Z,1.10
2023-02-19T15:07:11.857Z,1.30
2023-02-19T15:09:45.705Z,0.90
2023-02-19T15:12:21.451Z,1.40
2023-02-19T15:14:56.385Z,0.90
2023-02-19T15:17:31.403Z,1.10
2023-02-19T15:20:06.250Z,1.40
2023-02-19T15:22:38.560Z,1.00
2023-02-19T15:25:12.805Z,1.40
2023-02-19T15:27:44.964Z,1.50
2023-02-19T15:30:26.072Z,1.70
2023-02-19T15:32:59.987Z,0.80
2023-02-19T15:35:33.607Z,1.00
2023-02-19T15:38:06.549Z,1.60
2023-02-19T15:40:38.591Z,1.40
2023-02-19T15:43:24.878Z,0.90
2023-02-19T15:46:01.434Z,0.60
2023-02-19T15:48:36.691Z,1.10
2023-02-19T15:51:13.086Z,0.60
2023-02-19T15:53:47.027Z,0.80
2023-02-19T15:56:28.239Z,1.20
2023-02-19T15:59:03.617Z,0.70
2023-02-19T16:01:36.910Z,1.40
2023-02-19T16:04:12.070Z,1.00
2023-02-19T16:06:56.293Z,0.90
2023-02-19T16:09:34.877Z,1.10
2023-02-19T16:12:22.045Z,1.10
2023-02-19T16:14:53.955Z,1.20
2023-02-19T16:17:28.186Z,1.50
2023-02-19T16:20:01.273Z,1.10
2023-02-19T16:22:36.134Z,0.80
2023-02-19T16:25:09.437Z,1.10
2023-02-19T16:27:43.004Z,1.30
2023-02-19T16:30:29.083Z,1.10
2023-02-19T16:33:22.825Z,1.80
2023-02-19T16:35:57.329Z,1.10
2023-02-19T16:38:29.799Z,1.50
2023-02-19T16:41:16.504Z,1.50
2023-02-19T16:43:48.643Z,1.10
2023-02-19T16:46:22.252Z,1.20
2023-02-19T16:48:55.131Z,1.30
2023-02-19T16:51:29.302Z,2.30
2023-02-19T16:54:01.169Z,1.20
2023-02-19T16:56:33.126Z,1.10
2023-02-19T16:59:05.119Z,2.10
2023-02-19T17:01:38.139Z,1.90
2023-02-19T17:04:12.732Z,2.00
2023-02-19T17:06:45.739Z,1.00
2023-02-19T17:09:17.737Z,1.10
2023-02-19T17:11:49.723Z,1.10
2023-02-19T17:14:21.932Z,1.20
2023-02-19T17:16:53.810Z,1.40
2023-02-19T17:19:26.128Z,1.20
2023-02-19T17:21:58.862Z,1.00
2023-02-19T17:24:30.995Z,0.80
2023-02-19T17:27:02.851Z,1.40
2023-02-19T17:29:37.346Z,1.80
2023-02-19T17:32:09.396Z,1.00
2023-02-19T17:34:42.232Z,1.10
2023-02-19T17:37:17.208Z,1.30
2023-02-19T17:39:51.738Z,1.60
2023-02-19T17:42:23.948Z,1.80
2023-02-19T17:44:55.849Z,1.20
2023-02-19T17:47:28.129Z,1.20
2023-02-19T17:50:01.350Z,1.70
2023-02-19T17:52:33.408Z,1.10
2023-02-19T17:55:05.521Z,1.70
2023-02-19T17:57:37.344Z,0.80
2023-02-19T18:00:12.601Z,0.80
2023-02-19T18:02:47.216Z,1.60
2023-02-19T18:05:20.018Z,1.10
2023-02-19T18:08:02.411Z,1.10
2023-02-19T18:10:36.889Z,0.60
2023-02-19T18:13:09.404Z,1.00
2023-02-19T18:19:00.026Z,1.90
2023-02-19T18:21:32.190Z,0.90
2023-02-19T18:24:16.228Z,0.60
2023-02-19T18:26:52.057Z,0.90
2023-02-19T18:29:26.113Z,1.10
2023-02-19T18:31:59.863Z,1.60
2023-02-19T18:34:32.860Z,1.10
2023-02-19T18:37:05.229Z,0.60
2023-02-19T18:39:37.251Z,1.10
2023-02-19T18:42:13.582Z,0.70
2023-02-19T18:44:48.404Z,1.30
2023-02-19T18:49:51.559Z,0.60
2023-02-19T18:52:26.648Z,2.00
2023-02-19T18:54:58.763Z,1.60
2023-02-19T18:57:31.191Z,1.50
2023-02-19T19:00:03.136Z,0.90
2023-02-19T19:02:48.654Z,1.00
2023-02-19T19:05:23.349Z,1.00
2023-02-19T19:07:56.608Z,2.00
2023-02-19T19:10:28.970Z,2.80
2023-02-19T19:13:01.280Z,1.80
2023-02-19T19:15:33.433Z,1.60
2023-02-19T19:18:05.598Z,1.40
2023-02-19T19:20:37.645Z,1.50
2023-02-19T19:23:09.778Z,1.10
2023-02-19T19:25:41.688Z,1.70
2023-02-19T19:28:15.236Z,1.90
2023-02-19T19:30:47.171Z,2.30
2023-02-19T19:33:19.329Z,1.70
2023-02-19T19:35:52.131Z,1.30
2023-02-19T19:38:24.412Z,1.80
2023-02-19T19:40:56.415Z,3.20
2023-02-19T19:43:31.513Z,2.60
2023-02-19T19:46:04.547Z,1.60
2023-02-19T19:48:39.096Z,1.30
2023-02-19T19:51:11.642Z,2.10
2023-02-19T19:53:46.050Z,2.20
2023-02-19T19:56:18.024Z,1.90
2023-02-19T19:58:50.694Z,2.00
2023-02-19T20:01:23.761Z,2.90
2023-02-19T20:03:55.748Z,1.90
2023-02-19T20:06:29.908Z,2.20
2023-02-19T20:09:02.429Z,1.20
2023-02-19T20:11:34.436Z,1.00
2023-02-19T20:14:06.438Z,1.80
2023-02-19T20:16:38.442Z,2.80
2023-02-19T20:19:10.982Z,1.00
2023-02-19T20:21:46.748Z,1.60
2023-02-19T20:24:20.414Z,2.70
2023-02-19T20:26:52.402Z,5.10
2023-02-19T20:29:25.185Z,1.60
2023-02-19T20:31:59.614Z,1.10
2023-02-19T20:34:32.288Z,1.30
2023-02-19T20:37:04.127Z,1.50
2023-02-19T20:39:37.692Z,1.30
2023-02-19T20:42:10.089Z,0.90
2023-02-19T20:44:42.511Z,1.30
2023-02-19T20:47:14.352Z,1.80
2023-02-19T20:49:48.341Z,1.10
2023-02-19T20:54:51.001Z,1.10
2023-02-19T20:57:23.058Z,1.80
2023-02-19T20:59:55.008Z,1.60
2023-02-19T21:02:29.471Z,1.40
2023-02-19T21:05:02.255Z,1.40
2023-02-19T21:07:34.486Z,1.50
2023-02-19T21:10:07.925Z,1.10
2023-02-19T21:12:42.345Z,0.90
2023-02-19T21:15:14.973Z,1.70
2023-02-19T21:17:48.855Z,0.90
2023-02-19T21:20:22.011Z,1.30
2023-02-19T21:22:53.965Z,1.70
2023-02-19T21:25:25.841Z,1.20
2023-02-19T21:27:57.871Z,1.80
2023-02-19T21:30:29.857Z,2.70
2023-02-19T21:33:01.800Z,3.50
2023-02-19T21:35:34.278Z,1.90
2023-02-19T21:38:06.179Z,2.40
2023-02-19T21:40:38.110Z,2.50
2023-02-19T21:43:10.027Z,1.90
2023-02-19T21:45:42.892Z,1.10
2023-02-19T21:48:15.321Z,1.80
2023-02-19T21:50:47.358Z,0.90
2023-02-19T21:53:19.526Z,2.50
2023-02-19T21:55:58.393Z,2.10
2023-02-19T21:58:30.807Z,1.70
2023-02-19T22:01:03.086Z,1.80
2023-02-19T22:03:35.098Z,2.30
2023-02-19T22:06:07.878Z,1.90
2023-02-19T22:08:39.806Z,2.60
2023-02-19T22:11:11.837Z,2.20
2023-02-19T22:13:43.698Z,2.40
2023-02-19T22:16:15.757Z,2.90
2023-02-19T22:18:55.887Z,2.40
2023-02-19T22:21:32.591Z,2.30
2023-02-19T22:24:06.383Z,2.30
2023-02-19T22:26:39.495Z,1.30
2023-02-19T22:29:13.214Z,1.70
2023-02-19T22:31:45.162Z,2.80
2023-02-19T22:34:25.178Z,1.80
2023-02-19T22:36:57.065Z,1.30
2023-02-19T22:39:29.431Z,2.70
2023-02-19T22:42:01.468Z,2.60
2023-02-19T22:44:34.619Z,2.10
2023-02-19T22:47:06.564Z,2.10
2023-02-19T22:49:41.091Z,1.30
2023-02-19T22:52:14.308Z,1.90
2023-02-19T22:54:46.861Z,2.50
2023-02-19T22:57:18.829Z,1.00
2023-02-19T22:59:53.242Z,3.30
2023-02-19T23:02:27.741Z,2.10
2023-02-19T23:04:59.730Z,2.30
2023-02-19T23:07:32.011Z,2.60
2023-02-19T23:10:06.804Z,3.10
2023-02-19T23:12:40.881Z,3.80
2023-02-19T23:15:14.488Z,2.60
2023-02-19T23:17:47.247Z,2.90
2023-02-19T23:20:20.450Z,1.90
2023-02-19T23:22:54.370Z,3.00
2023-02-19T23:25:26.633Z,2.20
2023-02-19T23:27:59.054Z,2.20
2023-02-19T23:30:32.308Z,3.70
2023-02-19T23:33:04.890Z,3.90
2023-02-19T23:35:37.344Z,3.10
2023-02-19T23:38:10.321Z,2.40
2023-02-19T23:40:45.268Z,3.10
2023-02-19T23:43:17.311Z,3.30
2023-02-19T23:45:51.799Z,3.00
2023-02-19T23:48:23.735Z,2.00
2023-02-19T23:50:55.590Z,2.30
2023-02-19T23:53:27.471Z,2.90
2023-02-19T23:56:00.518Z,2.70
2023-02-19T23:58:32.917Z,1.50
